Emporium, Pennsylvania
Current Conditions -  °F | °C
As of 12:53 PM on Monday 24 Nov 2014 (Local Time) from KBFD Reporting Station
Overcast Overcast  
Wind Chill: 62°   Ceiling: 7000
Heat Index: 62°   Visibility: 10mi
Dew Point: 43°   Wind: 20mph
Humidity: 50%   Direction: 210°SSW
Pressure: 29.38"   Gusts: 35mph
Location:  41.51°N, 78.24°W
Report Text: KBFD 241753Z AUTO 21017G30KT 10SM FEW046 BKN070 OVC085 17/06 A2938 RMK AO2 PK WND 20030/1751 SLP942 60001 T01670061 10172 20128 58017
Loading
Personal Weather Stations






























Interactive Weather Map New forecast layout! Learn more

10-Day Weather Forecast

Advertisements
Track Severe Weather on mobile